Taberville, Missouri
Current Conditions -  °F | °C
As of 6:15 AM on Sunday 21 Dec 2014 (Local Time) from KGLY Reporting Station
Haze Haze  
Wind Chill: 36°   Ceiling: 2300
Heat Index: 41°   Visibility: 6mi
Dew Point: 37°   Wind: 7mph
Humidity: 87%   Direction: 150°SSE
Pressure: 30.11"   Gusts: NA
Location:  38.0755°N, 94.1669°W
Report Text: KGLY 211215Z AUTO 15006KT 6SM BR OVC023 05/03 A3011 RMK AO2
Loading
Personal Weather Stations






























Interactive Weather Map New forecast layout! Learn more

10-Day Weather Forecast

Advertisements
Track Severe Weather on mobile